KLIT/LIT METAR and TAF weather

Enter ICAO airport designator
Station Type Date Time Source
KLIT METAR 2023/02/05 13:53 UTC NOAA

KLIT 051353Z 24011KT 10SM FEW150 06/01 A3018 RMK AO2 SLP223 T00610011


Station Type Date Time Source
KLIT Decoded METAR 2023/02/05 13:53 UTC NOAA

LITTLE ROCK ADAMS FIELD, AR, United States (KLIT) 34-44N 92-14W 79M
Feb 05, 2023 - 08:53 AM EST / 2023.02.05 1353 UTC
Wind: from the WSW (240 degrees) at 13 MPH (11 KT):0
Visibility: 10 mile(s):0
Sky conditions: mostly clear
Temperature: 43.0 F (6.1 C)
Dew Point: 34.0 F (1.1 C)
Relative Humidity: 70%
Pressure (altimeter): 30.18 in. Hg (1022 hPa)
ob: KLIT 051353Z 24011KT 10SM FEW150 06/01 A3018 RMK AO2 SLP223 T00610011
cycle: 14

Station Type Date Time Source
KLIT TAF 2023/02/05 12:24 UTC NOAA

TAF KLIT 051123Z 0512/0612 22006KT P6SM SCT250 WS020/24040KT
FM051300 23008KT P6SM BKN250
FM060000 VRB04KT P6SM BKN250

Example: see airport list